Time;durP1;ratioP1;P1;durP2;ratioP2;P2;SDS_P1;SDS_P2;PMS_P1;PMS_P2;Temp;Humidity;BMP_temperature;BMP_pressure;BME280_temperature;BME280_humidity;BME280_pressure;Samples;Min_cycle;Max_cycle;Signal;HPM_P1;HPM_P2
2022/06/07 00:00:27;;;;;;;21.98;16.52;;;;;;;12.25;100.00;101289.69;4912071;29;20048;-84
2022/06/07 00:02:53;;;;;;;26.17;17.67;;;;;;;12.27;100.00;101286.09;4881681;29;20048;-83
2022/06/07 00:05:18;;;;;;;31.63;18.45;;;;;;;12.27;100.00;101283.44;4897334;29;20397;-84
2022/06/07 00:07:44;;;;;;;30.67;20.15;;;;;;;12.27;100.00;101280.78;4907706;29;20378;-83
2022/06/07 00:10:10;;;;;;;31.67;20.75;;;;;;;12.26;100.00;101281.72;4879034;29;20033;-84
2022/06/07 00:12:36;;;;;;;31.85;19.98;;;;;;;12.26;100.00;101287.03;4888196;29;20085;-84
2022/06/07 00:15:01;;;;;;;29.48;19.33;;;;;;;12.29;100.00;101285.19;4883097;29;20048;-84
2022/06/07 00:17:27;;;;;;;27.75;19.88;;;;;;;12.27;100.00;101282.56;4886329;29;20516;-84
2022/06/07 00:19:52;;;;;;;29.58;20.98;;;;;;;12.31;100.00;101278.91;4896544;29;20044;-84
2022/06/07 00:22:18;;;;;;;30.15;20.88;;;;;;;12.31;100.00;101278.06;4894142;29;20053;-84
2022/06/07 00:24:44;;;;;;;29.08;21.13;;;;;;;12.29;100.00;101264.84;4890954;29;20044;-84
2022/06/07 00:27:10;;;;;;;35.92;21.90;;;;;;;12.32;100.00;101267.41;4890535;29;20056;-84
2022/06/07 00:29:37;;;;;;;32.85;21.90;;;;;;;12.31;100.00;101262.13;4900384;29;20076;-84
2022/06/07 00:32:05;;;;;;;27.98;21.73;;;;;;;12.30;100.00;101263.91;4892027;29;20837;-84
2022/06/07 00:34:31;;;;;;;30.15;22.45;;;;;;;12.31;100.00;101263.00;4882922;29;20066;-84
2022/06/07 00:36:56;;;;;;;33.13;22.50;;;;;;;12.29;100.00;101261.28;4909479;29;20135;-84
2022/06/07 00:39:22;;;;;;;39.60;23.40;;;;;;;12.31;100.00;101260.34;4891055;29;20051;-84
2022/06/07 00:41:48;;;;;;;33.60;23.83;;;;;;;12.32;100.00;101251.47;4866338;29;20091;-84
2022/06/07 00:44:30;;;;;;;37.65;23.05;;;;;;;12.34;100.00;101254.97;4888548;29;20127;-84
2022/06/07 00:47:00;;;;;;;36.00;24.40;;;;;;;12.33;100.00;101260.31;4881359;29;20111;-84
2022/06/07 00:49:29;;;;;;;32.83;23.10;;;;;;;12.35;100.00;101253.19;4897746;29;20048;-84
2022/06/07 00:51:55;;;;;;;28.58;22.67;;;;;;;12.29;100.00;101248.91;4901295;29;20055;-84
2022/06/07 00:54:30;;;;;;;31.60;22.35;;;;;;;12.36;100.00;101249.59;4891272;29;20048;-84
2022/06/07 00:57:03;;;;;;;33.78;24.13;;;;;;;12.38;100.00;101255.75;4900954;29;20047;-84
2022/06/07 00:59:33;;;;;;;37.00;23.55;;;;;;;12.38;100.00;101246.00;4900820;29;20051;-84
2022/06/07 01:01:59;;;;;;;35.13;22.77;;;;;;;12.37;100.00;101243.41;4886957;29;20044;-85
2022/06/07 01:04:27;;;;;;;34.10;22.95;;;;;;;12.35;100.00;101232.81;4894933;29;20044;-84
2022/06/07 01:12:25;;;;;;;32.97;22.80;;;;;;;12.35;100.00;101230.16;4895939;29;20399;-84
2022/06/07 01:14:51;;;;;;;32.08;22.85;;;;;;;12.37;100.00;101238.09;4888319;29;20060;-84
2022/06/07 01:17:19;;;;;;;36.20;23.42;;;;;;;12.36;100.00;101239.84;4896970;29;20087;-84
2022/06/07 01:19:45;;;;;;;37.33;23.15;;;;;;;12.38;100.00;101240.69;4902409;29;20096;-84
2022/06/07 01:22:11;;;;;;;35.90;23.00;;;;;;;12.35;100.00;101234.59;4901170;29;20535;-85
2022/06/07 01:24:38;;;;;;;30.60;22.85;;;;;;;12.35;100.00;101227.50;4905133;29;20059;-84
2022/06/07 01:27:07;;;;;;;33.63;21.80;;;;;;;12.34;100.00;101231.06;4888419;29;20060;-84
2022/06/07 01:29:33;;;;;;;28.50;21.83;;;;;;;12.35;100.00;101231.94;4885767;29;20048;-84
2022/06/07 01:32:00;;;;;;;31.45;23.02;;;;;;;12.35;100.00;101227.50;4889415;29;20047;-84
2022/06/07 01:34:27;;;;;;;33.80;22.17;;;;;;;12.34;99.97;101225.75;4899411;29;20552;-85
2022/06/07 01:36:57;;;;;;;26.88;21.02;;;;;;;12.33;100.00;101228.44;4907011;29;20048;-84
2022/06/07 01:42:10;;;;;;;34.55;21.70;;;;;;;12.34;99.65;101220.44;4890945;29;20052;-83
2022/06/07 01:44:39;;;;;;;34.38;20.70;;;;;;;12.33;99.63;101217.81;4867157;29;20048;-84
2022/06/07 01:47:10;;;;;;;29.45;20.52;;;;;;;12.33;99.66;101215.16;4914860;29;20048;-84
2022/06/07 01:49:40;;;;;;;27.35;20.17;;;;;;;12.30;99.82;101201.97;4885989;29;20242;-84
2022/06/07 01:52:07;;;;;;;26.40;19.98;;;;;;;12.32;99.50;101213.44;4914866;29;20052;-84
2022/06/07 01:54:36;;;;;;;27.42;18.30;;;;;;;12.31;99.20;101195.72;4883940;29;20044;-83
2022/06/07 01:57:02;;;;;;;26.45;18.77;;;;;;;12.27;99.17;101190.50;4883587;29;20461;-85
2022/06/07 01:59:28;;;;;;;28.30;19.30;;;;;;;12.26;98.84;101195.84;4886773;29;20127;-85
2022/06/07 02:01:54;;;;;;;26.15;19.33;;;;;;;12.23;99.34;101193.25;4880026;29;20169;-84
2022/06/07 02:04:23;;;;;;;29.02;18.17;;;;;;;12.23;99.14;101198.56;4904161;29;20056;-85
2022/06/07 02:06:52;;;;;;;24.50;17.23;;;;;;;12.19;99.05;101204.84;4893336;29;20101;-84
2022/06/07 02:09:26;;;;;;;25.70;18.13;;;;;;;12.17;98.26;101201.38;4895998;29;20080;-84
2022/06/07 02:11:53;;;;;;;28.85;18.10;;;;;;;12.17;98.24;101202.25;4911660;29;20076;-86
2022/06/07 02:14:18;;;;;;;23.60;16.27;;;;;;;12.19;98.27;101204.84;4874380;29;20054;-84
2022/06/07 02:16:44;;;;;;;21.90;15.45;;;;;;;12.15;98.18;101205.84;4895421;29;20068;-84
2022/06/07 02:19:10;;;;;;;23.55;15.90;;;;;;;12.11;98.51;101194.41;4895523;29;20094;-84
2022/06/07 02:21:40;;;;;;;23.20;15.93;;;;;;;12.13;98.15;101194.38;4895830;29;20098;-84
2022/06/07 02:24:08;;;;;;;21.02;14.30;;;;;;;12.08;98.00;101188.31;4881738;29;20044;-84
2022/06/07 02:26:48;;;;;;;20.55;13.60;;;;;;;12.11;97.84;101194.41;4890552;29;20040;-84
2022/06/07 02:29:20;;;;;;;20.67;13.25;;;;;;;12.05;97.78;101197.22;4897608;29;20094;-84
2022/06/07 02:31:53;;;;;;;21.42;12.50;;;;;;;12.05;97.49;101192.78;4898664;29;20497;-84
2022/06/07 02:34:21;;;;;;;23.27;12.35;;;;;;;12.04;97.49;101185.72;4899120;29;20485;-84
2022/06/07 02:36:50;;;;;;;19.60;12.77;;;;;;;11.98;97.05;101177.88;4902935;29;20361;-84
2022/06/07 02:39:17;;;;;;;19.17;12.35;;;;;;;11.95;97.23;101177.97;4913429;29;20135;-84
2022/06/07 02:41:45;;;;;;;21.75;12.40;;;;;;;11.95;97.24;101188.56;4885839;29;20048;-85
2022/06/07 02:44:11;;;;;;;23.80;12.75;;;;;;;11.93;97.30;101177.13;4878849;29;20112;-84
2022/06/07 02:46:37;;;;;;;15.75;11.68;;;;;;;11.93;96.63;101179.75;4909516;29;20056;-85
2022/06/07 02:49:04;;;;;;;20.27;11.45;;;;;;;11.95;97.10;101183.25;4879436;29;20144;-83
2022/06/07 02:51:30;;;;;;;18.58;11.32;;;;;;;11.92;96.88;101179.78;4879420;29;20500;-84
2022/06/07 02:53:56;;;;;;;22.38;12.45;;;;;;;11.92;96.72;101179.78;4879531;29;20055;-84
2022/06/07 02:56:23;;;;;;;18.00;11.18;;;;;;;11.92;96.45;101174.47;4894265;29;20044;-84
2022/06/07 02:58:49;;;;;;;17.58;11.10;;;;;;;11.88;96.78;101178.13;4897858;29;20080;-84
2022/06/07 03:01:15;;;;;;;17.95;11.02;;;;;;;11.86;96.56;101177.25;4872868;29;20457;-84
2022/06/07 03:03:43;;;;;;;19.52;10.82;;;;;;;11.85;96.98;101179.03;4892062;29;20093;-83
2022/06/07 03:06:11;;;;;;;15.85;10.38;;;;;;;11.81;96.37;101172.91;4879447;29;20060;-84
2022/06/07 03:08:38;;;;;;;18.67;10.35;;;;;;;11.80;96.18;101187.09;4912523;29;20056;-84
2022/06/07 03:11:04;;;;;;;13.77;10.15;;;;;;;11.75;96.33;101177.50;4886478;29;20449;-84
2022/06/07 03:13:32;;;;;;;14.73;9.88;;;;;;;11.78;96.52;101180.94;4897407;29;20067;-82
2022/06/07 03:15:58;;;;;;;13.48;9.20;;;;;;;11.73;96.20;101176.66;4889219;29;20139;-82
2022/06/07 03:18:24;;;;;;;13.52;9.65;;;;;;;11.77;95.80;101191.56;4880032;29;20159;-82
2022/06/07 03:20:52;;;;;;;19.13;9.63;;;;;;;11.72;95.92;101191.69;4860185;29;20096;-83
2022/06/07 03:23:19;;;;;;;19.45;8.60;;;;;;;11.68;95.73;101184.69;4907220;29;20067;-83
2022/06/07 03:26:10;;;;;;;16.88;9.07;;;;;;;11.71;95.45;101189.06;4858794;29;20036;-83
2022/06/07 03:28:42;;;;;;;17.92;9.48;;;;;;;11.69;95.37;101188.22;4913585;29;20052;-83
2022/06/07 03:31:13;;;;;;;14.18;8.98;;;;;;;11.67;96.31;101193.56;4884664;29;20143;-84
2022/06/07 03:33:43;;;;;;;16.63;8.50;;;;;;;11.66;95.90;101196.25;4913313;29;20036;-83
2022/06/07 03:36:17;;;;;;;12.30;8.27;;;;;;;11.67;96.14;101195.34;4910518;29;20173;-83
2022/06/07 03:38:43;;;;;;;13.63;8.60;;;;;;;11.66;95.96;101196.25;4894564;29;20388;-83
2022/06/07 03:41:16;;;;;;;15.50;8.25;;;;;;;11.65;96.53;101198.03;4906611;29;20497;-83
2022/06/07 03:43:41;;;;;;;20.38;8.32;;;;;;;11.65;95.48;101210.41;4902695;29;20047;-83
2022/06/07 03:46:15;;;;;;;14.10;8.00;;;;;;;11.64;95.62;101206.88;4878179;29;20056;-84
2022/06/07 03:48:43;;;;;;;15.95;8.15;;;;;;;11.62;96.06;101208.69;4906875;29;20044;-83
2022/06/07 03:51:12;;;;;;;15.75;8.35;;;;;;;11.59;95.71;101212.28;4879754;29;20137;-83
2022/06/07 03:53:39;;;;;;;12.55;7.47;;;;;;;11.62;95.94;101214.00;4906511;29;20570;-83
2022/06/07 03:56:06;;;;;;;17.85;7.55;;;;;;;11.58;96.30;101217.63;4906898;29;20044;-83
2022/06/07 03:58:38;;;;;;;15.60;7.57;;;;;;;11.60;95.37;101222.00;4866714;29;20444;-83
2022/06/07 04:01:06;;;;;;;12.77;7.28;;;;;;;11.57;95.51;101219.41;4889825;29;20456;-83
2022/06/07 04:03:32;;;;;;;11.40;6.72;;;;;;;11.60;94.99;101219.34;4880091;29;20052;-85
2022/06/07 04:05:58;;;;;;;9.75;7.15;;;;;;;11.60;95.45;101223.78;4898148;29;20059;-83
2022/06/07 04:08:28;;;;;;;10.48;7.43;;;;;;;11.62;95.15;101227.25;4897875;29;20131;-84
2022/06/07 04:10:58;;;;;;;10.00;6.85;;;;;;;11.62;95.86;101224.59;4905171;29;20203;-83
2022/06/07 04:13:32;;;;;;;10.52;6.78;;;;;;;11.56;95.66;101212.34;4913437;29;20040;-83
2022/06/07 04:16:12;;;;;;;16.25;6.82;;;;;;;11.61;95.56;101220.22;4907927;29;20120;-83
2022/06/07 04:18:44;;;;;;;13.07;7.40;;;;;;;11.59;94.85;101224.66;4901475;29;20576;-83
2022/06/07 04:21:12;;;;;;;14.38;6.97;;;;;;;11.59;94.25;101217.56;4894774;29;20044;-84
2022/06/07 04:23:38;;;;;;;11.18;6.95;;;;;;;11.58;94.96;101218.50;4900950;29;20052;-83
2022/06/07 04:26:08;;;;;;;13.57;7.63;;;;;;;11.58;95.07;101225.59;4887523;29;20251;-83
2022/06/07 04:28:38;;;;;;;12.45;7.53;;;;;;;11.57;95.34;101229.13;4905971;29;20048;-83
2022/06/07 04:31:10;;;;;;;18.27;8.02;;;;;;;11.58;94.80;101229.09;4900516;29;20067;-83
2022/06/07 04:33:36;;;;;;;12.23;7.93;;;;;;;11.60;95.28;101227.31;4916869;29;20040;-85
2022/06/07 04:36:20;;;;;;;23.08;8.80;;;;;;;11.62;95.33;101232.56;4855144;29;20049;-83
2022/06/07 04:38:47;;;;;;;;;;;;;;;11.65;95.06;101232.53;4887681;29;20064;-83
2022/06/07 04:41:15;;;;;;;16.27;8.00;;;;;;;11.62;95.44;101228.16;4881451;29;19928;-82
2022/06/07 04:43:46;;;;;;;15.18;8.10;;;;;;;11.61;95.35;101231.69;4908982;29;20044;-83
2022/06/07 04:46:16;;;;;;;11.23;7.28;;;;;;;11.63;95.11;101240.50;4883278;29;20449;-83
2022/06/07 04:48:44;;;;;;;14.43;7.80;;;;;;;11.64;95.12;101233.41;4908361;29;20055;-83
2022/06/07 04:51:18;;;;;;;17.35;8.40;;;;;;;11.65;95.25;101235.19;4897352;29;20044;-83
2022/06/07 04:53:48;;;;;;;23.35;9.40;;;;;;;11.66;95.59;101236.91;4897389;29;20036;-83
2022/06/07 04:56:26;;;;;;;13.27;8.65;;;;;;;11.68;95.14;101228.94;4911149;29;20508;-83
2022/06/07 04:58:52;;;;;;;14.98;8.77;;;;;;;11.66;95.40;101231.59;4900453;29;20071;-83
2022/06/07 05:01:29;;;;;;;14.57;8.23;;;;;;;11.71;96.04;101232.38;4902544;29;20041;-83
2022/06/07 05:03:58;;;;;;;15.95;9.20;;;;;;;11.79;95.95;101240.19;4908085;29;20044;-83
2022/06/07 05:06:26;;;;;;;14.48;8.65;;;;;;;11.84;95.74;101236.56;4865775;29;20191;-83
2022/06/07 05:09:12;;;;;;;15.07;9.55;;;;;;;11.88;95.26;101224.13;4897370;29;20049;-82
2022/06/07 05:11:37;;;;;;;18.35;9.48;;;;;;;11.92;95.03;101227.56;4895002;29;20063;-84
2022/06/07 05:14:06;;;;;;;17.92;10.05;;;;;;;11.96;95.47;101227.47;4903912;29;20048;-83
2022/06/07 05:16:37;;;;;;;14.83;9.77;;;;;;;11.99;94.94;101234.50;4912347;29;20139;-83
2022/06/07 05:19:06;;;;;;;15.65;10.55;;;;;;;12.04;95.41;101235.25;4875098;29;20059;-82
2022/06/07 05:21:32;;;;;;;18.17;10.55;;;;;;;12.05;94.38;101237.03;4915212;29;20044;-83
2022/06/07 05:23:58;;;;;;;14.05;10.68;;;;;;;12.07;95.12;101231.66;4886076;29;20177;-82
2022/06/07 05:26:38;;;;;;;19.35;11.05;;;;;;;12.11;94.79;101242.19;4896540;29;20490;-82
2022/06/07 05:29:16;;;;;;;15.88;10.98;;;;;;;12.13;95.19;101235.06;4909484;29;20218;-83
2022/06/07 05:31:42;;;;;;;27.95;12.57;;;;;;;12.20;94.79;101238.47;4904017;29;20051;-81
2022/06/07 05:34:08;;;;;;;22.23;12.45;;;;;;;12.19;94.84;101237.59;4901398;29;20048;-82
2022/06/07 05:36:37;;;;;;;18.75;11.55;;;;;;;12.24;95.28;101242.81;4877463;29;20048;-82
2022/06/07 05:39:04;;;;;;;27.27;13.35;;;;;;;12.29;94.40;101245.34;4896147;29;20047;-82
2022/06/07 05:41:32;;;;;;;23.70;12.23;;;;;;;12.31;94.75;101249.72;4865044;29;20059;-82
2022/06/07 05:44:06;;;;;;;18.83;11.38;;;;;;;12.32;93.74;101243.50;4880084;29;20374;-82
2022/06/07 05:46:36;;;;;;;19.95;12.48;;;;;;;12.36;93.98;101255.78;4870362;29;20048;-81
2022/06/07 05:49:19;;;;;;;15.82;11.38;;;;;;;12.35;94.11;101248.75;4914993;29;20052;-82
2022/06/07 05:51:55;;;;;;;22.33;12.63;;;;;;;12.35;93.82;101250.53;4883373;29;20410;-81
2022/06/07 05:54:21;;;;;;;24.67;12.90;;;;;;;12.35;94.65;101243.44;4892890;29;20143;-81
2022/06/07 05:56:47;;;;;;;23.35;12.77;;;;;;;12.41;94.97;101250.38;4866083;29;20044;-81
2022/06/07 05:59:13;;;;;;;23.05;13.85;;;;;;;12.43;95.08;101246.78;4880487;29;20409;-82
2022/06/07 06:01:39;;;;;;;20.80;13.48;;;;;;;12.45;94.19;101252.94;4867294;29;20514;-81
2022/06/07 06:04:08;;;;;;;22.02;12.95;;;;;;;12.51;94.24;101251.03;4895999;29;20051;-82
2022/06/07 06:06:40;;;;;;;23.92;13.43;;;;;;;12.52;94.26;101251.00;4895582;29;20059;-81
2022/06/07 06:11:55;;;;;;;26.45;13.05;;;;;;;12.56;93.96;101252.72;4907141;29;20040;-80
2022/06/07 06:14:26;;;;;;;24.88;12.82;;;;;;;12.61;94.44;101256.13;4905560;29;20139;-81
2022/06/07 07:50:31;;;;;;;28.98;20.63;;;;;;;15.14;86.15;101269.31;5335192;24;20055;-86
2022/06/07 07:52:59;;;;;;;33.28;20.77;;;;;;;15.17;86.45;101269.22;5344619;24;20089;-84
2022/06/07 07:58:16;;;;;;;30.17;21.23;;;;;;;15.20;85.44;101271.75;4937305;24;20071;-87
2022/06/07 08:00:47;;;;;;;34.47;20.63;;;;;;;15.12;85.39;101267.63;4737423;30;20230;-87
2022/06/07 08:03:14;;;;;;;27.58;20.80;;;;;;;15.12;85.29;101265.81;4757176;30;20048;-87
2022/06/07 08:05:43;;;;;;;27.95;20.85;;;;;;;15.14;85.81;101271.13;4767122;30;20105;-87
2022/06/07 08:08:09;;;;;;;28.52;21.08;;;;;;;15.19;86.37;101266.50;4737595;30;20056;-87
2022/06/07 08:10:36;;;;;;;30.83;21.02;;;;;;;15.27;84.63;101265.28;4737221;30;20051;-87
2022/06/07 08:13:03;;;;;;;28.25;20.70;;;;;;;15.37;85.72;101262.31;4760952;29;20500;-86
2022/06/07 08:15:31;;;;;;;32.08;23.23;;;;;;;15.44;85.27;101267.38;4771690;30;20059;-87
2022/06/07 08:17:58;;;;;;;31.10;23.48;;;;;;;15.65;82.52;101256.84;4752555;30;20056;-87
2022/06/07 08:20:24;;;;;;;25.55;21.55;;;;;;;15.77;82.83;101259.09;4764856;30;20054;-88
2022/06/07 08:22:51;;;;;;;22.85;19.30;;;;;;;15.84;81.73;101252.63;4769614;30;20054;-87
2022/06/07 08:25:19;;;;;;;27.77;20.88;;;;;;;15.95;83.79;101252.22;4770208;30;20084;-85
2022/06/07 08:27:44;;;;;;;26.00;21.58;;;;;;;16.01;82.97;101254.66;4751016;30;20600;-87
2022/06/07 08:30:11;;;;;;;28.20;21.23;;;;;;;16.06;83.24;101262.50;4737408;30;20079;-87
2022/06/07 08:32:41;;;;;;;27.25;20.05;;;;;;;16.06;81.20;101254.47;4741111;30;20126;-87
2022/06/07 08:37:58;;;;;;;28.60;21.40;;;;;;;16.38;80.12;101263.94;4751991;30;20044;-87
2022/06/07 08:40:37;;;;;;;29.63;20.65;;;;;;;16.46;79.65;101263.63;4761394;30;20441;-87
2022/06/07 08:43:23;;;;;;;32.65;21.35;;;;;;;16.49;79.51;101260.81;4769102;30;20046;-86
2022/06/07 08:45:49;;;;;;;29.17;21.15;;;;;;;16.60;79.64;101252.38;4764213;30;20066;-87
2022/06/07 08:48:20;;;;;;;27.65;20.30;;;;;;;16.82;78.28;101258.63;4771747;30;20504;-87
2022/06/07 08:51:06;;;;;;;23.60;17.50;;;;;;;17.05;77.12;101243.41;4772978;30;20047;-87
2022/06/07 08:53:36;;;;;;;26.35;19.40;;;;;;;17.17;78.11;101256.28;4759663;30;20063;-88
2022/06/07 08:56:06;;;;;;;26.73;19.13;;;;;;;17.15;74.61;101250.97;4740130;30;20052;-87
2022/06/07 08:58:37;;;;;;;23.20;18.90;;;;;;;17.20;75.41;101253.47;4773111;29;20060;-87
2022/06/07 09:01:39;;;;;;;24.38;17.95;;;;;;;17.19;75.35;101255.28;4765900;30;20051;-87
2022/06/07 09:04:12;;;;;;;22.52;18.48;;;;;;;17.17;74.68;101262.50;4746805;30;20056;-88
2022/06/07 09:06:47;;;;;;;22.75;19.05;;;;;;;17.00;74.08;101246.28;4770641;30;20048;-86
2022/06/07 09:09:15;;;;;;;25.20;17.75;;;;;;;16.88;73.62;101255.69;4757634;30;20047;-88
2022/06/07 09:14:35;;;;;;;;;;;;;;;16.95;76.26;101254.50;4779591;29;20058;-85
2022/06/07 09:17:11;;;;;;;22.13;17.17;;;;;;;17.05;75.39;101252.31;4754366;30;19917;-85
2022/06/07 09:19:38;;;;;;;21.65;17.08;;;;;;;17.15;73.14;101250.13;4769194;30;20052;-85
2022/06/07 09:22:13;;;;;;;22.13;15.02;;;;;;;17.36;73.94;101243.84;4754136;30;20275;-84
2022/06/07 09:24:42;;;;;;;19.65;16.02;;;;;;;17.60;74.26;101243.69;4769227;30;20052;-85
2022/06/07 09:27:21;;;;;;;25.35;15.50;;;;;;;17.80;72.48;101246.38;4778256;29;20059;-82
2022/06/07 09:29:59;;;;;;;20.20;14.85;;;;;;;17.79;71.83;101249.09;4770392;30;20056;-85
2022/06/07 09:32:31;;;;;;;23.13;15.27;;;;;;;17.69;71.87;101243.28;4782892;29;20062;-84
2022/06/07 09:35:05;;;;;;;21.58;16.67;;;;;;;17.55;71.28;101246.56;4769112;30;20130;-84
2022/06/07 09:38:01;;;;;;;25.17;16.48;;;;;;;17.48;72.87;101252.25;4768855;30;20071;-85
2022/06/07 09:40:33;;;;;;;21.45;16.25;;;;;;;17.44;72.12;101253.34;4766602;29;20051;-85
2022/06/07 09:43:18;;;;;;;22.02;16.45;;;;;;;17.49;72.06;101249.53;4742236;30;20047;-84
2022/06/07 09:45:43;;;;;;;19.65;16.25;;;;;;;17.62;73.18;101244.47;4755190;30;20503;-85
2022/06/07 09:48:25;;;;;;;21.92;15.95;;;;;;;17.80;70.91;101249.06;4787863;30;20040;-84
2022/06/07 09:51:16;;;;;;;19.27;12.73;;;;;;;18.10;70.99;101250.38;4771476;30;20055;-84
2022/06/07 09:54:01;;;;;;;15.73;11.93;;;;;;;18.28;70.31;101241.47;4746431;30;20044;-85
2022/06/07 09:56:34;;;;;;;16.77;11.48;;;;;;;18.33;68.13;101254.66;4780822;30;20104;-85
2022/06/07 09:59:35;;;;;;;12.98;11.50;;;;;;;18.34;67.55;101238.50;4768208;30;20039;-85
2022/06/07 10:02:36;;;;;;;17.88;10.48;;;;;;;18.36;68.19;101235.75;4733310;30;20485;-85
2022/06/07 10:05:33;;;;;;;25.02;11.18;;;;;;;18.40;65.82;101240.03;4757327;30;20099;-86
2022/06/07 10:08:17;;;;;;;14.38;10.88;;;;;;;18.64;68.04;101237.94;4781001;29;20406;-85
2022/06/07 10:11:02;;;;;;;14.07;10.60;;;;;;;18.79;67.05;101237.25;4758451;30;20063;-85
2022/06/07 10:13:58;;;;;;;20.98;10.93;;;;;;;18.60;66.73;101236.38;4781988;30;20066;-85
2022/06/07 10:16:36;;;;;;;16.60;10.95;;;;;;;18.33;66.43;101231.41;4753554;30;20109;-86
2022/06/07 10:19:07;;;;;;;14.18;11.18;;;;;;;18.27;68.17;101234.38;4787109;30;20079;-87
2022/06/07 10:21:48;;;;;;;15.93;11.35;;;;;;;18.28;68.07;101225.41;4745601;30;20058;-86
2022/06/07 10:24:38;;;;;;;16.25;11.48;;;;;;;18.34;69.10;101233.13;4761676;29;20104;-86
2022/06/07 10:27:11;;;;;;;14.45;11.32;;;;;;;18.38;69.29;101233.88;4747231;30;20056;-86
2022/06/07 10:29:55;;;;;;;17.80;12.15;;;;;;;18.31;69.54;101230.59;4787321;30;20047;-86
2022/06/07 10:32:45;;;;;;;19.38;13.02;;;;;;;18.41;69.74;101233.72;4786913;29;20055;-86
2022/06/07 10:35:28;;;;;;;20.60;11.82;;;;;;;18.80;68.72;101225.56;4774642;30;20444;-86
2022/06/07 10:38:12;;;;;;;17.20;12.27;;;;;;;19.02;67.20;101227.16;4758028;30;20435;-85
2022/06/07 10:40:59;;;;;;;18.67;12.52;;;;;;;19.30;65.58;101221.22;4754119;29;20071;-85
2022/06/07 10:43:32;;;;;;;18.65;11.52;;;;;;;19.51;65.47;101222.78;4761418;30;20050;-85
2022/06/07 10:46:00;;;;;;;16.25;11.02;;;;;;;19.76;63.51;101227.75;4752806;30;20124;-86
2022/06/07 10:48:34;;;;;;;17.63;10.45;;;;;;;20.09;65.62;101215.22;4762097;30;20054;-85
2022/06/07 10:54:31;;;;;;;15.38;9.60;;;;;;;20.38;61.34;101217.13;4781582;29;20130;-86
2022/06/07 10:57:24;;;;;;;14.67;8.20;;;;;;;20.01;61.75;101199.50;4765504;30;20086;-84
2022/06/07 10:59:51;;;;;;;13.70;8.60;;;;;;;19.87;62.14;101205.63;4758000;30;20070;-85
2022/06/07 11:02:35;;;;;;;13.02;8.07;;;;;;;20.12;62.53;101205.13;4763134;30;20051;-86
2022/06/07 11:10:45;;;;;;;13.43;6.90;;;;;;;20.38;59.78;101198.31;4785401;30;20039;-86
2022/06/07 11:13:17;;;;;;;13.98;7.30;;;;;;;20.22;59.93;101205.50;4743822;30;20493;-86
2022/06/07 11:16:16;;;;;;;12.15;7.88;;;;;;;20.00;61.30;101202.28;4758427;30;20146;-86
2022/06/07 11:18:42;;;;;;;12.93;6.95;;;;;;;19.87;60.60;101204.78;4783985;29;20061;-85
2022/06/07 11:21:08;;;;;;;11.40;6.70;;;;;;;19.74;61.15;101213.50;4776499;29;20464;-86
2022/06/07 11:23:46;;;;;;;11.15;7.72;;;;;;;19.56;60.74;101206.44;4772206;30;20035;-86
2022/06/07 11:26:15;;;;;;;15.77;8.10;;;;;;;19.42;61.45;101206.28;4786388;29;20083;-86
2022/06/07 11:28:40;;;;;;;11.85;6.90;;;;;;;19.31;62.55;101204.16;4748444;30;20051;-86
2022/06/07 11:31:21;;;;;;;10.07;6.93;;;;;;;19.25;61.82;101210.72;4780213;30;20105;-86
2022/06/07 11:33:52;;;;;;;13.65;7.45;;;;;;;19.21;62.68;101203.75;4769096;30;20048;-86
2022/06/07 11:36:24;;;;;;;11.13;6.95;;;;;;;19.32;63.37;101209.44;4778012;30;20112;-86
2022/06/07 11:38:56;;;;;;;13.75;7.63;;;;;;;19.63;62.95;101209.63;4765037;30;20150;-86
2022/06/07 11:41:36;;;;;;;20.33;7.47;;;;;;;19.87;61.90;101202.94;4763426;30;20133;-86
2022/06/07 11:44:12;;;;;;;12.63;7.80;;;;;;;19.77;62.14;101199.91;4768123;30;20076;-86
2022/06/07 11:46:38;;;;;;;16.38;7.30;;;;;;;19.88;62.20;101198.44;4760419;30;20180;-85
2022/06/07 11:49:22;;;;;;;13.02;7.18;;;;;;;20.07;59.42;101201.84;4773042;30;20126;-86
2022/06/07 11:51:55;;;;;;;13.73;6.95;;;;;;;20.06;57.43;101197.44;4760334;30;20141;-85
2022/06/07 11:55:08;;;;;;;10.27;6.68;;;;;;;20.05;58.51;101198.38;4782440;30;20536;-85
2022/06/07 11:57:37;;;;;;;14.25;6.55;;;;;;;19.89;57.66;101192.13;4767300;30;20056;-85
2022/06/07 12:00:23;;;;;;;9.40;5.95;;;;;;;20.12;57.82;101194.38;4780351;29;20146;-84
2022/06/07 12:03:00;;;;;;;11.48;6.05;;;;;;;20.38;56.54;101197.44;4771203;30;20050;-84
2022/06/07 12:06:04;;;;;;;12.95;6.00;;;;;;;20.63;54.56;101193.38;4752035;30;20124;-84
2022/06/07 12:08:51;;;;;;;7.97;5.63;;;;;;;20.82;54.58;101192.19;4770570;30;20107;-85
2022/06/07 12:11:23;;;;;;;13.55;5.40;;;;;;;20.94;54.06;101185.19;4775480;30;20056;-84
2022/06/07 12:14:18;;;;;;;9.63;4.63;;;;;;;21.07;56.14;101187.13;4751555;30;20514;-85
2022/06/07 12:16:54;;;;;;;10.05;5.38;;;;;;;20.92;54.31;101189.81;4751277;30;20067;-85
2022/06/07 12:19:23;;;;;;;10.30;5.38;;;;;;;20.91;54.88;101187.22;4775119;29;20044;-86
2022/06/07 12:22:04;;;;;;;7.90;5.30;;;;;;;20.90;53.35;101188.19;4758429;30;20134;-85
2022/06/07 12:24:38;;;;;;;;;;;;;;;20.94;53.05;101187.88;4748564;30;20393;-84
2022/06/07 12:27:37;;;;;;;8.65;5.05;;;;;;;20.70;54.18;101192.06;4764992;30;20407;-84
2022/06/07 12:30:29;;;;;;;8.55;4.93;;;;;;;20.43;54.80;101187.28;4769619;30;20056;-84
2022/06/07 12:33:10;;;;;;;8.45;4.95;;;;;;;20.24;54.75;101181.22;4760495;30;20055;-84
2022/06/07 12:35:36;;;;;;;8.48;5.10;;;;;;;20.52;54.59;101172.41;4770974;29;20067;-83
2022/06/07 12:38:02;;;;;;;8.55;5.05;;;;;;;20.67;54.97;101176.06;4765630;30;20063;-84
2022/06/07 12:40:35;;;;;;;7.70;4.93;;;;;;;20.86;54.41;101174.03;4783927;30;20050;-84
2022/06/07 12:43:01;;;;;;;8.75;4.35;;;;;;;20.80;54.09;101169.03;4759495;30;20075;-85
2022/06/07 12:45:37;;;;;;;9.18;4.70;;;;;;;20.74;53.80;101178.31;4740269;30;20055;-85
2022/06/07 12:48:15;;;;;;;8.38;4.03;;;;;;;20.79;55.57;101170.81;4776463;30;20070;-84
2022/06/07 12:50:43;;;;;;;6.40;4.20;;;;;;;20.88;53.87;101171.25;4775857;30;20070;-85
2022/06/07 12:53:26;;;;;;;8.75;4.30;;;;;;;20.86;53.82;101173.16;4754630;30;20035;-85
2022/06/07 12:56:02;;;;;;;8.98;3.70;;;;;;;20.63;53.92;101161.06;4755420;30;20154;-84
2022/06/07 12:58:34;;;;;;;5.82;3.92;;;;;;;20.47;54.99;101167.28;4771807;29;20123;-85
2022/06/07 13:01:06;;;;;;;4.32;3.53;;;;;;;20.55;56.55;101164.22;4778901;29;20111;-85
2022/06/07 13:03:37;;;;;;;5.85;3.60;;;;;;;20.79;54.81;101167.25;4780452;29;20047;-85
2022/06/07 13:06:08;;;;;;;7.35;3.35;;;;;;;20.83;55.41;101166.13;4770764;30;20334;-84
2022/06/07 13:08:39;;;;;;;5.40;3.10;;;;;;;20.96;54.93;101177.88;4770734;30;20066;-82
2022/06/07 13:11:11;;;;;;;6.07;3.20;;;;;;;21.01;52.07;101170.41;4771031;30;20361;-84
2022/06/07 13:13:40;;;;;;;8.20;3.42;;;;;;;21.20;54.51;101161.22;4754566;30;20051;-84
2022/06/07 13:16:11;;;;;;;6.63;3.15;;;;;;;21.46;55.42;101157.81;4770448;30;20048;-84
2022/06/07 13:18:59;;;;;;;4.82;3.13;;;;;;;21.72;53.83;101168.78;4770519;30;20174;-84
2022/06/07 13:21:39;;;;;;;6.15;3.65;;;;;;;21.66;51.53;101167.34;4770776;30;20058;-84
2022/06/07 13:24:06;;;;;;;5.07;2.80;;;;;;;21.59;52.92;101166.00;4768969;30;20051;-84
2022/06/07 13:26:42;;;;;;;7.20;2.90;;;;;;;21.50;53.29;101165.69;4737643;30;20051;-84
2022/06/07 13:29:08;;;;;;;7.90;3.63;;;;;;;21.32;54.15;101162.31;4754330;30;20555;-84
2022/06/07 13:31:48;;;;;;;5.72;3.20;;;;;;;21.20;53.70;101164.78;4779775;29;20403;-84
2022/06/07 13:34:20;;;;;;;6.05;3.25;;;;;;;20.92;53.96;101162.00;4755417;30;20116;-83
2022/06/07 13:36:58;;;;;;;7.97;3.00;;;;;;;20.81;54.37;101159.97;4770428;30;20052;-85
2022/06/07 13:39:26;;;;;;;6.93;3.10;;;;;;;20.72;54.64;101160.50;4770365;30;20043;-85